sensor_id;sensor_type;location;lat;lon;timestamp;temperature;humidity
23873;DHT22;42884;50.718;4.630;2023-05-07T00:00:08;14.50;99.90
23873;DHT22;42884;50.718;4.630;2023-05-07T00:02:34;14.50;99.90
23873;DHT22;42884;50.718;4.630;2023-05-07T00:04:59;14.50;99.90
23873;DHT22;42884;50.718;4.630;2023-05-07T00:07:25;14.50;99.90
23873;DHT22;42884;50.718;4.630;2023-05-07T00:09:51;14.60;99.90
23873;DHT22;42884;50.718;4.630;2023-05-07T00:12:16;14.60;99.90
23873;DHT22;42884;50.718;4.630;2023-05-07T00:14:42;14.60;99.90
23873;DHT22;42884;50.718;4.630;2023-05-07T00:17:07;14.70;99.90
23873;DHT22;42884;50.718;4.630;2023-05-07T00:19:33;14.70;99.90
23873;DHT22;42884;50.718;4.630;2023-05-07T00:21:58;14.70;99.90
23873;DHT22;42884;50.718;4.630;2023-05-07T00:24:24;14.80;99.90
23873;DHT22;42884;50.718;4.630;2023-05-07T00:26:49;14.80;99.90
23873;DHT22;42884;50.718;4.630;2023-05-07T00:29:15;14.80;99.90
23873;DHT22;42884;50.718;4.630;2023-05-07T00:31:41;14.90;99.90
23873;DHT22;42884;50.718;4.630;2023-05-07T00:34:06;14.80;99.90
23873;DHT22;42884;50.718;4.630;2023-05-07T00:36:32;14.90;99.90
23873;DHT22;42884;50.718;4.630;2023-05-07T00:38:59;14.90;99.90
23873;DHT22;42884;50.718;4.630;2023-05-07T00:41:25;14.90;99.90
23873;DHT22;42884;50.718;4.630;2023-05-07T00:43:51;14.90;99.90
23873;DHT22;42884;50.718;4.630;2023-05-07T00:46:20;14.90;99.90
23873;DHT22;42884;50.718;4.630;2023-05-07T00:48:46;14.90;99.90
23873;DHT22;42884;50.718;4.630;2023-05-07T00:51:12;14.90;99.90
23873;DHT22;42884;50.718;4.630;2023-05-07T00:53:37;14.90;99.90
23873;DHT22;42884;50.718;4.630;2023-05-07T00:56:03;14.90;99.90
23873;DHT22;42884;50.718;4.630;2023-05-07T00:58:29;14.90;99.90
23873;DHT22;42884;50.718;4.630;2023-05-07T01:00:55;15.00;99.90
23873;DHT22;42884;50.718;4.630;2023-05-07T01:03:21;15.00;99.90
23873;DHT22;42884;50.718;4.630;2023-05-07T01:05:46;15.00;99.90
23873;DHT22;42884;50.718;4.630;2023-05-07T01:08:13;15.00;99.90
23873;DHT22;42884;50.718;4.630;2023-05-07T01:10:39;15.00;99.90
23873;DHT22;42884;50.718;4.630;2023-05-07T01:13:11;15.00;99.90
23873;DHT22;42884;50.718;4.630;2023-05-07T01:15:37;15.00;99.90
23873;DHT22;42884;50.718;4.630;2023-05-07T01:18:03;15.00;99.90
23873;DHT22;42884;50.718;4.630;2023-05-07T01:20:29;15.00;99.90
23873;DHT22;42884;50.718;4.630;2023-05-07T01:22:55;15.00;99.90
23873;DHT22;42884;50.718;4.630;2023-05-07T01:25:22;15.00;99.90
23873;DHT22;42884;50.718;4.630;2023-05-07T01:27:48;15.00;99.90
23873;DHT22;42884;50.718;4.630;2023-05-07T01:30:14;15.00;99.90
23873;DHT22;42884;50.718;4.630;2023-05-07T01:35:05;15.00;99.90
23873;DHT22;42884;50.718;4.630;2023-05-07T01:37:32;15.00;99.90
23873;DHT22;42884;50.718;4.630;2023-05-07T01:39:58;15.10;99.90
23873;DHT22;42884;50.718;4.630;2023-05-07T01:42:23;15.10;99.90
23873;DHT22;42884;50.718;4.630;2023-05-07T01:44:49;15.10;99.90
23873;DHT22;42884;50.718;4.630;2023-05-07T01:47:15;15.10;99.90
23873;DHT22;42884;50.718;4.630;2023-05-07T01:49:41;15.10;99.90
23873;DHT22;42884;50.718;4.630;2023-05-07T01:52:07;15.00;99.90
23873;DHT22;42884;50.718;4.630;2023-05-07T01:54:33;15.00;99.90
23873;DHT22;42884;50.718;4.630;2023-05-07T01:56:59;15.00;99.90
23873;DHT22;42884;50.718;4.630;2023-05-07T01:59:25;15.10;99.90
23873;DHT22;42884;50.718;4.630;2023-05-07T02:01:50;15.10;99.90
23873;DHT22;42884;50.718;4.630;2023-05-07T02:04:17;15.10;99.90
23873;DHT22;42884;50.718;4.630;2023-05-07T02:06:42;15.10;99.90
23873;DHT22;42884;50.718;4.630;2023-05-07T02:09:08;15.10;99.90
23873;DHT22;42884;50.718;4.630;2023-05-07T02:11:37;15.20;99.90
23873;DHT22;42884;50.718;4.630;2023-05-07T02:14:02;15.20;99.90
23873;DHT22;42884;50.718;4.630;2023-05-07T02:16:28;15.20;99.90
23873;DHT22;42884;50.718;4.630;2023-05-07T02:18:53;15.20;99.90
23873;DHT22;42884;50.718;4.630;2023-05-07T02:21:19;15.20;99.90
23873;DHT22;42884;50.718;4.630;2023-05-07T02:23:44;15.20;99.90
23873;DHT22;42884;50.718;4.630;2023-05-07T02:26:10;15.10;99.90
23873;DHT22;42884;50.718;4.630;2023-05-07T02:28:36;15.10;99.90
23873;DHT22;42884;50.718;4.630;2023-05-07T02:31:02;15.10;99.90
23873;DHT22;42884;50.718;4.630;2023-05-07T02:33:28;15.10;99.90
23873;DHT22;42884;50.718;4.630;2023-05-07T02:35:53;15.10;99.90
23873;DHT22;42884;50.718;4.630;2023-05-07T02:38:19;15.10;99.90
23873;DHT22;42884;50.718;4.630;2023-05-07T02:40:44;15.10;99.90
23873;DHT22;42884;50.718;4.630;2023-05-07T02:43:10;15.10;99.90
23873;DHT22;42884;50.718;4.630;2023-05-07T02:45:35;15.10;99.90
23873;DHT22;42884;50.718;4.630;2023-05-07T02:48:03;15.10;99.90
23873;DHT22;42884;50.718;4.630;2023-05-07T02:50:28;15.00;99.90
23873;DHT22;42884;50.718;4.630;2023-05-07T02:52:54;15.00;99.90
23873;DHT22;42884;50.718;4.630;2023-05-07T02:55:20;15.00;99.90
23873;DHT22;42884;50.718;4.630;2023-05-07T02:57:46;15.00;99.90
23873;DHT22;42884;50.718;4.630;2023-05-07T03:00:16;14.90;99.90
23873;DHT22;42884;50.718;4.630;2023-05-07T03:02:41;14.90;99.90
23873;DHT22;42884;50.718;4.630;2023-05-07T03:05:07;14.90;99.90
23873;DHT22;42884;50.718;4.630;2023-05-07T03:07:34;14.90;99.90
23873;DHT22;42884;50.718;4.630;2023-05-07T03:10:00;14.90;99.90
23873;DHT22;42884;50.718;4.630;2023-05-07T03:12:25;14.90;99.90
23873;DHT22;42884;50.718;4.630;2023-05-07T03:14:51;14.90;99.90
23873;DHT22;42884;50.718;4.630;2023-05-07T03:17:16;14.80;99.90
23873;DHT22;42884;50.718;4.630;2023-05-07T03:19:42;14.80;99.90
23873;DHT22;42884;50.718;4.630;2023-05-07T03:22:07;14.70;99.90
23873;DHT22;42884;50.718;4.630;2023-05-07T03:24:33;14.70;99.90
23873;DHT22;42884;50.718;4.630;2023-05-07T03:26:58;14.70;99.90
23873;DHT22;42884;50.718;4.630;2023-05-07T03:29:26;14.70;99.90
23873;DHT22;42884;50.718;4.630;2023-05-07T03:31:52;14.70;99.90
23873;DHT22;42884;50.718;4.630;2023-05-07T03:34:17;14.70;99.90
23873;DHT22;42884;50.718;4.630;2023-05-07T03:36:50;14.60;99.90
23873;DHT22;42884;50.718;4.630;2023-05-07T03:39:16;14.60;99.90
23873;DHT22;42884;50.718;4.630;2023-05-07T03:41:41;14.60;99.90
23873;DHT22;42884;50.718;4.630;2023-05-07T03:44:07;14.50;99.90
23873;DHT22;42884;50.718;4.630;2023-05-07T03:46:33;14.60;99.90
23873;DHT22;42884;50.718;4.630;2023-05-07T03:48:58;14.60;99.90
23873;DHT22;42884;50.718;4.630;2023-05-07T03:51:24;14.60;99.90
23873;DHT22;42884;50.718;4.630;2023-05-07T03:53:50;14.60;99.90
23873;DHT22;42884;50.718;4.630;2023-05-07T03:56:18;14.70;99.90
23873;DHT22;42884;50.718;4.630;2023-05-07T03:58:44;14.60;99.90
23873;DHT22;42884;50.718;4.630;2023-05-07T04:01:09;14.70;99.90
23873;DHT22;42884;50.718;4.630;2023-05-07T04:03:35;14.70;99.90
23873;DHT22;42884;50.718;4.630;2023-05-07T04:06:01;14.70;99.90
23873;DHT22;42884;50.718;4.630;2023-05-07T04:08:26;14.70;99.90
23873;DHT22;42884;50.718;4.630;2023-05-07T04:10:55;14.80;99.90
23873;DHT22;42884;50.718;4.630;2023-05-07T04:13:21;14.80;99.90
23873;DHT22;42884;50.718;4.630;2023-05-07T04:15:46;14.80;99.90
23873;DHT22;42884;50.718;4.630;2023-05-07T04:18:14;14.80;99.90
23873;DHT22;42884;50.718;4.630;2023-05-07T04:20:40;14.80;99.90
23873;DHT22;42884;50.718;4.630;2023-05-07T04:23:05;14.80;99.90
23873;DHT22;42884;50.718;4.630;2023-05-07T04:25:31;14.90;99.90
23873;DHT22;42884;50.718;4.630;2023-05-07T04:27:56;14.90;99.90
23873;DHT22;42884;50.718;4.630;2023-05-07T04:30:22;14.90;99.90
23873;DHT22;42884;50.718;4.630;2023-05-07T04:32:48;14.90;99.90
23873;DHT22;42884;50.718;4.630;2023-05-07T04:35:13;15.00;99.90
23873;DHT22;42884;50.718;4.630;2023-05-07T04:37:39;15.00;99.90
23873;DHT22;42884;50.718;4.630;2023-05-07T04:40:05;15.00;99.90
23873;DHT22;42884;50.718;4.630;2023-05-07T04:42:31;15.00;99.90
23873;DHT22;42884;50.718;4.630;2023-05-07T04:44:56;15.00;99.90
23873;DHT22;42884;50.718;4.630;2023-05-07T04:47:22;15.10;99.90
23873;DHT22;42884;50.718;4.630;2023-05-07T04:49:47;15.10;99.90
23873;DHT22;42884;50.718;4.630;2023-05-07T04:52:13;15.10;99.90
23873;DHT22;42884;50.718;4.630;2023-05-07T04:54:39;15.10;99.90
23873;DHT22;42884;50.718;4.630;2023-05-07T04:57:04;15.10;99.90
23873;DHT22;42884;50.718;4.630;2023-05-07T04:59:30;15.20;99.90
23873;DHT22;42884;50.718;4.630;2023-05-07T05:01:55;15.20;99.90
23873;DHT22;42884;50.718;4.630;2023-05-07T05:04:21;15.30;99.90
23873;DHT22;42884;50.718;4.630;2023-05-07T05:06:46;15.30;99.90
23873;DHT22;42884;50.718;4.630;2023-05-07T05:09:12;15.40;99.90
23873;DHT22;42884;50.718;4.630;2023-05-07T05:11:38;15.50;99.90
23873;DHT22;42884;50.718;4.630;2023-05-07T05:14:04;15.50;99.90
23873;DHT22;42884;50.718;4.630;2023-05-07T05:16:29;15.60;99.90
23873;DHT22;42884;50.718;4.630;2023-05-07T05:18:55;15.70;99.90
23873;DHT22;42884;50.718;4.630;2023-05-07T05:21:20;15.80;99.90
23873;DHT22;42884;50.718;4.630;2023-05-07T05:23:46;15.80;99.90
23873;DHT22;42884;50.718;4.630;2023-05-07T05:26:12;15.90;99.90
23873;DHT22;42884;50.718;4.630;2023-05-07T05:28:38;15.90;99.90
23873;DHT22;42884;50.718;4.630;2023-05-07T05:31:04;16.00;99.90
23873;DHT22;42884;50.718;4.630;2023-05-07T05:33:30;16.00;99.90
23873;DHT22;42884;50.718;4.630;2023-05-07T05:35:55;16.10;99.90
23873;DHT22;42884;50.718;4.630;2023-05-07T05:38:21;16.10;99.90
23873;DHT22;42884;50.718;4.630;2023-05-07T05:40:46;16.20;99.90
23873;DHT22;42884;50.718;4.630;2023-05-07T05:43:13;16.20;99.90
23873;DHT22;42884;50.718;4.630;2023-05-07T05:45:38;16.30;99.90
23873;DHT22;42884;50.718;4.630;2023-05-07T05:48:04;16.30;99.90
23873;DHT22;42884;50.718;4.630;2023-05-07T05:50:29;16.30;99.90
23873;DHT22;42884;50.718;4.630;2023-05-07T05:52:55;16.40;99.90
23873;DHT22;42884;50.718;4.630;2023-05-07T05:55:21;16.40;99.90
23873;DHT22;42884;50.718;4.630;2023-05-07T05:57:47;16.50;99.90
23873;DHT22;42884;50.718;4.630;2023-05-07T06:00:13;16.50;99.90
23873;DHT22;42884;50.718;4.630;2023-05-07T06:02:39;16.50;99.90
23873;DHT22;42884;50.718;4.630;2023-05-07T06:05:04;16.50;99.90
23873;DHT22;42884;50.718;4.630;2023-05-07T06:07:30;16.60;99.90
23873;DHT22;42884;50.718;4.630;2023-05-07T06:09:56;16.60;99.90
23873;DHT22;42884;50.718;4.630;2023-05-07T06:12:21;16.60;99.90
23873;DHT22;42884;50.718;4.630;2023-05-07T06:14:47;16.60;99.90
23873;DHT22;42884;50.718;4.630;2023-05-07T06:17:12;16.70;99.90
23873;DHT22;42884;50.718;4.630;2023-05-07T06:19:38;16.70;99.90
23873;DHT22;42884;50.718;4.630;2023-05-07T06:22:03;16.70;99.90
23873;DHT22;42884;50.718;4.630;2023-05-07T06:24:29;16.70;99.90
23873;DHT22;42884;50.718;4.630;2023-05-07T06:26:55;16.70;99.90
23873;DHT22;42884;50.718;4.630;2023-05-07T06:29:20;16.70;99.90
23873;DHT22;42884;50.718;4.630;2023-05-07T06:31:46;16.70;99.90
23873;DHT22;42884;50.718;4.630;2023-05-07T06:34:11;16.80;99.90
23873;DHT22;42884;50.718;4.630;2023-05-07T06:36:40;16.80;99.90
23873;DHT22;42884;50.718;4.630;2023-05-07T06:39:05;16.80;99.90
23873;DHT22;42884;50.718;4.630;2023-05-07T06:41:31;16.80;99.90
23873;DHT22;42884;50.718;4.630;2023-05-07T06:43:56;16.90;99.90
23873;DHT22;42884;50.718;4.630;2023-05-07T06:46:22;17.00;99.90
23873;DHT22;42884;50.718;4.630;2023-05-07T06:48:47;17.10;99.90
23873;DHT22;42884;50.718;4.630;2023-05-07T06:51:13;17.20;99.90
23873;DHT22;42884;50.718;4.630;2023-05-07T06:53:39;17.20;99.90
23873;DHT22;42884;50.718;4.630;2023-05-07T06:56:04;17.30;99.90
23873;DHT22;42884;50.718;4.630;2023-05-07T06:58:30;17.30;99.90
23873;DHT22;42884;50.718;4.630;2023-05-07T07:00:55;17.40;99.90
23873;DHT22;42884;50.718;4.630;2023-05-07T07:03:21;17.50;99.90
23873;DHT22;42884;50.718;4.630;2023-05-07T07:05:47;17.50;99.90
23873;DHT22;42884;50.718;4.630;2023-05-07T07:08:12;17.50;99.90
23873;DHT22;42884;50.718;4.630;2023-05-07T07:10:38;17.60;99.90
23873;DHT22;42884;50.718;4.630;2023-05-07T07:13:03;17.60;99.90
23873;DHT22;42884;50.718;4.630;2023-05-07T07:15:29;17.70;99.90
23873;DHT22;42884;50.718;4.630;2023-05-07T07:17:54;17.70;99.90
23873;DHT22;42884;50.718;4.630;2023-05-07T07:20:20;17.70;99.90
23873;DHT22;42884;50.718;4.630;2023-05-07T07:22:46;17.80;99.90
23873;DHT22;42884;50.718;4.630;2023-05-07T07:25:11;17.80;99.90
23873;DHT22;42884;50.718;4.630;2023-05-07T07:27:37;18.00;99.90
23873;DHT22;42884;50.718;4.630;2023-05-07T07:30:03;18.00;99.90
23873;DHT22;42884;50.718;4.630;2023-05-07T07:32:29;18.10;99.90
23873;DHT22;42884;50.718;4.630;2023-05-07T07:34:54;18.10;99.90
23873;DHT22;42884;50.718;4.630;2023-05-07T07:37:20;18.10;99.90
23873;DHT22;42884;50.718;4.630;2023-05-07T07:39:45;18.00;99.90
23873;DHT22;42884;50.718;4.630;2023-05-07T07:42:11;18.10;99.90
23873;DHT22;42884;50.718;4.630;2023-05-07T07:44:37;18.10;99.90
23873;DHT22;42884;50.718;4.630;2023-05-07T07:47:02;18.20;99.90
23873;DHT22;42884;50.718;4.630;2023-05-07T07:49:28;18.30;99.90
23873;DHT22;42884;50.718;4.630;2023-05-07T07:51:53;18.40;99.90
23873;DHT22;42884;50.718;4.630;2023-05-07T07:54:19;18.40;99.90
23873;DHT22;42884;50.718;4.630;2023-05-07T07:56:44;18.30;99.90
23873;DHT22;42884;50.718;4.630;2023-05-07T07:59:10;18.20;99.90
23873;DHT22;42884;50.718;4.630;2023-05-07T08:01:35;18.30;99.90
23873;DHT22;42884;50.718;4.630;2023-05-07T08:04:01;18.20;99.90
23873;DHT22;42884;50.718;4.630;2023-05-07T08:06:28;18.40;99.90
23873;DHT22;42884;50.718;4.630;2023-05-07T08:08:54;18.40;99.90
23873;DHT22;42884;50.718;4.630;2023-05-07T08:11:20;18.50;99.90
23873;DHT22;42884;50.718;4.630;2023-05-07T08:13:46;18.40;99.90
23873;DHT22;42884;50.718;4.630;2023-05-07T08:16:12;18.50;99.90
23873;DHT22;42884;50.718;4.630;2023-05-07T08:18:37;18.60;99.90
23873;DHT22;42884;50.718;4.630;2023-05-07T08:21:03;18.70;99.90
23873;DHT22;42884;50.718;4.630;2023-05-07T08:23:29;18.70;99.90
23873;DHT22;42884;50.718;4.630;2023-05-07T08:25:54;18.70;99.90
23873;DHT22;42884;50.718;4.630;2023-05-07T08:28:20;18.80;99.90
23873;DHT22;42884;50.718;4.630;2023-05-07T08:30:46;19.00;99.90
23873;DHT22;42884;50.718;4.630;2023-05-07T08:33:12;19.00;99.90
23873;DHT22;42884;50.718;4.630;2023-05-07T08:35:38;19.00;99.90
23873;DHT22;42884;50.718;4.630;2023-05-07T08:38:03;18.90;99.90
23873;DHT22;42884;50.718;4.630;2023-05-07T08:40:29;18.90;99.90
23873;DHT22;42884;50.718;4.630;2023-05-07T08:42:58;19.00;99.90
23873;DHT22;42884;50.718;4.630;2023-05-07T08:45:25;19.00;99.90
23873;DHT22;42884;50.718;4.630;2023-05-07T08:47:52;19.00;99.90
23873;DHT22;42884;50.718;4.630;2023-05-07T08:50:20;19.10;99.90
23873;DHT22;42884;50.718;4.630;2023-05-07T08:52:45;19.20;99.90
23873;DHT22;42884;50.718;4.630;2023-05-07T08:55:11;19.20;99.90
23873;DHT22;42884;50.718;4.630;2023-05-07T08:57:38;19.00;99.90
23873;DHT22;42884;50.718;4.630;2023-05-07T09:00:04;19.00;99.90
23873;DHT22;42884;50.718;4.630;2023-05-07T09:02:29;19.20;99.90
23873;DHT22;42884;50.718;4.630;2023-05-07T09:04:55;19.20;99.90
23873;DHT22;42884;50.718;4.630;2023-05-07T09:07:21;19.30;99.90
23873;DHT22;42884;50.718;4.630;2023-05-07T09:09:46;19.30;99.90
23873;DHT22;42884;50.718;4.630;2023-05-07T09:12:12;19.30;99.90
23873;DHT22;42884;50.718;4.630;2023-05-07T09:14:38;19.40;99.90
23873;DHT22;42884;50.718;4.630;2023-05-07T09:17:04;19.40;99.90
23873;DHT22;42884;50.718;4.630;2023-05-07T09:19:30;19.50;99.90
23873;DHT22;42884;50.718;4.630;2023-05-07T09:21:59;19.50;99.90
23873;DHT22;42884;50.718;4.630;2023-05-07T09:24:26;19.60;99.90
23873;DHT22;42884;50.718;4.630;2023-05-07T09:26:53;19.50;99.90
23873;DHT22;42884;50.718;4.630;2023-05-07T09:29:20;19.50;99.90
23873;DHT22;42884;50.718;4.630;2023-05-07T09:31:46;19.50;99.90
23873;DHT22;42884;50.718;4.630;2023-05-07T09:34:11;19.50;99.90
23873;DHT22;42884;50.718;4.630;2023-05-07T09:36:37;19.60;99.90
23873;DHT22;42884;50.718;4.630;2023-05-07T09:39:03;19.60;99.90
23873;DHT22;42884;50.718;4.630;2023-05-07T09:41:30;19.60;99.90
23873;DHT22;42884;50.718;4.630;2023-05-07T09:43:56;19.60;99.90
23873;DHT22;42884;50.718;4.630;2023-05-07T09:46:25;19.60;99.90
23873;DHT22;42884;50.718;4.630;2023-05-07T09:48:52;19.60;99.90
23873;DHT22;42884;50.718;4.630;2023-05-07T09:53:50;19.70;99.90
23873;DHT22;42884;50.718;4.630;2023-05-07T09:56:17;19.70;99.90
23873;DHT22;42884;50.718;4.630;2023-05-07T09:58:43;19.70;99.90
23873;DHT22;42884;50.718;4.630;2023-05-07T10:01:10;19.50;99.90
23873;DHT22;42884;50.718;4.630;2023-05-07T10:03:35;19.50;99.90
23873;DHT22;42884;50.718;4.630;2023-05-07T10:06:01;19.40;99.90
23873;DHT22;42884;50.718;4.630;2023-05-07T10:08:28;19.40;99.90
23873;DHT22;42884;50.718;4.630;2023-05-07T10:10:55;19.30;99.90
23873;DHT22;42884;50.718;4.630;2023-05-07T10:13:21;19.30;99.90
23873;DHT22;42884;50.718;4.630;2023-05-07T10:15:47;19.30;99.90
23873;DHT22;42884;50.718;4.630;2023-05-07T10:18:13;19.20;99.90
23873;DHT22;42884;50.718;4.630;2023-05-07T10:20:38;19.30;99.90
23873;DHT22;42884;50.718;4.630;2023-05-07T10:23:04;19.20;99.90
23873;DHT22;42884;50.718;4.630;2023-05-07T10:25:31;19.20;99.90
23873;DHT22;42884;50.718;4.630;2023-05-07T10:28:01;19.30;99.90
23873;DHT22;42884;50.718;4.630;2023-05-07T10:33:08;19.60;99.90
23873;DHT22;42884;50.718;4.630;2023-05-07T10:35:37;19.70;99.90
23873;DHT22;42884;50.718;4.630;2023-05-07T10:38:04;19.70;99.90
23873;DHT22;42884;50.718;4.630;2023-05-07T10:40:30;19.80;99.90
23873;DHT22;42884;50.718;4.630;2023-05-07T10:42:57;19.90;99.90
23873;DHT22;42884;50.718;4.630;2023-05-07T10:45:24;20.00;99.90
23873;DHT22;42884;50.718;4.630;2023-05-07T10:50:31;19.80;99.90
23873;DHT22;42884;50.718;4.630;2023-05-07T10:55:40;20.10;99.90
23873;DHT22;42884;50.718;4.630;2023-05-07T11:00:47;20.30;99.90
23873;DHT22;42884;50.718;4.630;2023-05-07T11:03:13;20.50;99.90
23873;DHT22;42884;50.718;4.630;2023-05-07T11:05:40;20.40;99.90
23873;DHT22;42884;50.718;4.630;2023-05-07T11:08:06;20.50;99.90
23873;DHT22;42884;50.718;4.630;2023-05-07T11:13:16;20.80;99.90
23873;DHT22;42884;50.718;4.630;2023-05-07T11:15:42;20.90;99.90
23873;DHT22;42884;50.718;4.630;2023-05-07T11:18:10;20.90;99.90
23873;DHT22;42884;50.718;4.630;2023-05-07T11:26:08;20.90;99.90
23873;DHT22;42884;50.718;4.630;2023-05-07T11:28:39;20.90;99.90
23873;DHT22;42884;50.718;4.630;2023-05-07T11:31:05;21.10;99.90
23873;DHT22;42884;50.718;4.630;2023-05-07T11:33:31;21.00;99.90
23873;DHT22;42884;50.718;4.630;2023-05-07T11:35:57;20.90;99.90
23873;DHT22;42884;50.718;4.630;2023-05-07T11:38:23;20.90;99.90
23873;DHT22;42884;50.718;4.630;2023-05-07T11:40:49;20.80;99.90
23873;DHT22;42884;50.718;4.630;2023-05-07T11:43:15;20.70;99.90
23873;DHT22;42884;50.718;4.630;2023-05-07T11:45:40;20.60;99.90
23873;DHT22;42884;50.718;4.630;2023-05-07T11:48:06;20.70;99.90
23873;DHT22;42884;50.718;4.630;2023-05-07T11:50:32;20.80;99.90
23873;DHT22;42884;50.718;4.630;2023-05-07T11:52:57;21.00;99.90
23873;DHT22;42884;50.718;4.630;2023-05-07T11:55:23;21.00;99.90
23873;DHT22;42884;50.718;4.630;2023-05-07T11:57:50;20.90;99.90
23873;DHT22;42884;50.718;4.630;2023-05-07T12:00:16;20.80;99.90
23873;DHT22;42884;50.718;4.630;2023-05-07T12:02:42;20.80;99.90
23873;DHT22;42884;50.718;4.630;2023-05-07T12:05:08;20.90;99.90
23873;DHT22;42884;50.718;4.630;2023-05-07T12:07:34;20.90;99.90
23873;DHT22;42884;50.718;4.630;2023-05-07T12:10:04;20.90;99.90
23873;DHT22;42884;50.718;4.630;2023-05-07T12:12:29;20.90;99.90
23873;DHT22;42884;50.718;4.630;2023-05-07T12:14:55;21.00;99.90
23873;DHT22;42884;50.718;4.630;2023-05-07T12:17:21;21.00;99.90
23873;DHT22;42884;50.718;4.630;2023-05-07T12:19:46;21.00;99.90
23873;DHT22;42884;50.718;4.630;2023-05-07T12:22:12;20.90;99.90
23873;DHT22;42884;50.718;4.630;2023-05-07T12:24:44;20.70;99.90
23873;DHT22;42884;50.718;4.630;2023-05-07T12:27:10;20.80;99.90
23873;DHT22;42884;50.718;4.630;2023-05-07T12:29:36;20.60;99.90
23873;DHT22;42884;50.718;4.630;2023-05-07T12:32:05;20.60;99.90
23873;DHT22;42884;50.718;4.630;2023-05-07T12:34:31;20.70;99.90
23873;DHT22;42884;50.718;4.630;2023-05-07T12:36:56;20.70;99.90
23873;DHT22;42884;50.718;4.630;2023-05-07T12:39:22;20.80;99.90
23873;DHT22;42884;50.718;4.630;2023-05-07T12:41:58;20.90;99.90
23873;DHT22;42884;50.718;4.630;2023-05-07T12:44:24;20.80;99.90
23873;DHT22;42884;50.718;4.630;2023-05-07T12:46:51;20.80;99.90
23873;DHT22;42884;50.718;4.630;2023-05-07T12:49:16;20.90;99.90
23873;DHT22;42884;50.718;4.630;2023-05-07T12:51:43;21.00;99.90
23873;DHT22;42884;50.718;4.630;2023-05-07T12:54:09;21.10;99.90
23873;DHT22;42884;50.718;4.630;2023-05-07T12:56:37;21.30;99.90
23873;DHT22;42884;50.718;4.630;2023-05-07T12:59:03;21.40;99.90
23873;DHT22;42884;50.718;4.630;2023-05-07T13:01:29;21.10;99.90
23873;DHT22;42884;50.718;4.630;2023-05-07T13:03:57;21.20;99.90
23873;DHT22;42884;50.718;4.630;2023-05-07T13:06:25;21.10;99.90
23873;DHT22;42884;50.718;4.630;2023-05-07T13:08:51;21.00;99.90
23873;DHT22;42884;50.718;4.630;2023-05-07T13:11:17;21.10;99.90
23873;DHT22;42884;50.718;4.630;2023-05-07T13:13:42;21.00;99.90
23873;DHT22;42884;50.718;4.630;2023-05-07T13:16:09;21.10;99.90
23873;DHT22;42884;50.718;4.630;2023-05-07T13:18:34;21.10;99.90
23873;DHT22;42884;50.718;4.630;2023-05-07T13:21:00;21.00;99.90
23873;DHT22;42884;50.718;4.630;2023-05-07T13:23:26;21.10;99.90
23873;DHT22;42884;50.718;4.630;2023-05-07T13:25:52;21.00;99.90
23873;DHT22;42884;50.718;4.630;2023-05-07T13:28:19;20.90;99.90
23873;DHT22;42884;50.718;4.630;2023-05-07T13:30:45;21.00;99.90
23873;DHT22;42884;50.718;4.630;2023-05-07T13:33:11;20.80;99.90
23873;DHT22;42884;50.718;4.630;2023-05-07T13:35:37;20.80;99.90
23873;DHT22;42884;50.718;4.630;2023-05-07T13:38:03;20.70;99.90
23873;DHT22;42884;50.718;4.630;2023-05-07T13:40:28;20.70;99.90
23873;DHT22;42884;50.718;4.630;2023-05-07T13:42:56;20.70;99.90
23873;DHT22;42884;50.718;4.630;2023-05-07T13:45:22;20.80;99.90
23873;DHT22;42884;50.718;4.630;2023-05-07T13:47:51;20.90;99.90
23873;DHT22;42884;50.718;4.630;2023-05-07T13:50:16;20.80;99.90
23873;DHT22;42884;50.718;4.630;2023-05-07T13:52:42;20.80;99.90
23873;DHT22;42884;50.718;4.630;2023-05-07T13:55:09;20.70;99.90
23873;DHT22;42884;50.718;4.630;2023-05-07T13:57:35;20.80;99.90
23873;DHT22;42884;50.718;4.630;2023-05-07T14:00:02;20.70;99.90
23873;DHT22;42884;50.718;4.630;2023-05-07T14:02:27;20.70;99.90
23873;DHT22;42884;50.718;4.630;2023-05-07T14:04:53;20.60;99.90
23873;DHT22;42884;50.718;4.630;2023-05-07T14:07:19;20.60;99.90
23873;DHT22;42884;50.718;4.630;2023-05-07T14:09:44;20.80;99.90
23873;DHT22;42884;50.718;4.630;2023-05-07T14:12:10;20.80;99.90
23873;DHT22;42884;50.718;4.630;2023-05-07T14:14:36;20.90;99.90
23873;DHT22;42884;50.718;4.630;2023-05-07T14:17:01;20.80;99.90
23873;DHT22;42884;50.718;4.630;2023-05-07T14:19:27;20.80;99.90
23873;DHT22;42884;50.718;4.630;2023-05-07T14:21:55;20.90;99.90
23873;DHT22;42884;50.718;4.630;2023-05-07T14:24:21;20.80;99.90
23873;DHT22;42884;50.718;4.630;2023-05-07T14:26:47;20.90;99.90
23873;DHT22;42884;50.718;4.630;2023-05-07T14:29:12;21.00;99.90
23873;DHT22;42884;50.718;4.630;2023-05-07T14:31:38;20.90;99.90
23873;DHT22;42884;50.718;4.630;2023-05-07T14:34:04;20.80;99.90
23873;DHT22;42884;50.718;4.630;2023-05-07T14:36:29;20.70;99.90
23873;DHT22;42884;50.718;4.630;2023-05-07T14:38:57;20.70;99.90
23873;DHT22;42884;50.718;4.630;2023-05-07T14:41:24;20.60;99.90
23873;DHT22;42884;50.718;4.630;2023-05-07T14:43:50;20.60;99.90
23873;DHT22;42884;50.718;4.630;2023-05-07T14:46:18;20.60;99.90
23873;DHT22;42884;50.718;4.630;2023-05-07T14:48:45;20.60;99.90
23873;DHT22;42884;50.718;4.630;2023-05-07T14:51:11;20.50;99.90
23873;DHT22;42884;50.718;4.630;2023-05-07T14:53:37;20.50;99.90
23873;DHT22;42884;50.718;4.630;2023-05-07T14:56:03;20.50;99.90
23873;DHT22;42884;50.718;4.630;2023-05-07T14:58:28;20.30;99.90
23873;DHT22;42884;50.718;4.630;2023-05-07T15:00:54;20.30;99.90
23873;DHT22;42884;50.718;4.630;2023-05-07T15:03:19;20.30;99.90
23873;DHT22;42884;50.718;4.630;2023-05-07T15:05:45;20.40;99.90
23873;DHT22;42884;50.718;4.630;2023-05-07T15:08:11;20.30;99.90
23873;DHT22;42884;50.718;4.630;2023-05-07T15:10:37;20.20;99.90
23873;DHT22;42884;50.718;4.630;2023-05-07T15:13:06;20.20;99.90
23873;DHT22;42884;50.718;4.630;2023-05-07T15:15:32;20.10;99.90
23873;DHT22;42884;50.718;4.630;2023-05-07T15:17:58;19.90;99.90
23873;DHT22;42884;50.718;4.630;2023-05-07T15:20:25;20.00;99.90
23873;DHT22;42884;50.718;4.630;2023-05-07T15:22:51;20.20;99.90
23873;DHT22;42884;50.718;4.630;2023-05-07T15:25:17;20.10;99.90
23873;DHT22;42884;50.718;4.630;2023-05-07T15:27:42;20.10;99.90
23873;DHT22;42884;50.718;4.630;2023-05-07T15:30:08;20.20;99.90
23873;DHT22;42884;50.718;4.630;2023-05-07T15:32:35;20.30;99.90
23873;DHT22;42884;50.718;4.630;2023-05-07T15:35:01;20.40;99.90
23873;DHT22;42884;50.718;4.630;2023-05-07T15:37:26;20.30;99.90
23873;DHT22;42884;50.718;4.630;2023-05-07T15:39:52;20.30;99.90
23873;DHT22;42884;50.718;4.630;2023-05-07T15:42:18;20.40;99.90
23873;DHT22;42884;50.718;4.630;2023-05-07T15:44:43;20.50;99.90